Weather at Karlovy Vary International Airport

Public forecast

Using degrees Celsius for public forecast. Weather courtesy of forecast.io.

Current aviation weather report (METAR) for Karlovy Vary International Airport

Retrieved 2021/08/04 06:00 UTC (3 minutes ago):

LKKV 040600Z 23003KT 180V280 9999 BKN012 12/11 Q1015

Aviation forecast (TAF) for Karlovy Vary International Airport

Retrieved 2021/08/04 06:16 UTC (0 seconds ago):

TAF LKKV 040500Z 0406/0512 24005KT 9999 BKN025 TEMPO 0406/0409 7000 -RA BKN012 TEMPO 0409/0418 8000 -SHRA SCT020TCU PROB30 TEMPO 0506/0512 6000 SHRA SCT010TCU BKN012